Latest Weather Observations for Strahan

IDT60801

Issued at 6:01 am EST Wednesday 8 July 2015 (issued every 30 minutes, with the page automatically refreshed every 10 minutes)

About weather observations | Map of weather stations | Latest weather observations for TAS | Other Formats
Station Details ID: 097072 Name: STRAHAN AERODROME Lat: -42.16 Lon: 145.29 Height: 21.0 m
Data from the previous 72 hours. | See also: Recent months at Strahan
Date/Time
EST
Temp
°C
App
Temp
°C
Dew
Point
Rel
Hum
%
Delta-T
°C
Wind Press
QNH
hPa
Press
MSL
hPa
Rain
since 9 am
mm
Dir
 
Spd
km/h
Gust
km/h
Spd
kts
Gust
kts
08/06:00am 2.5 -2.6 0.6 87 0.7 NE 17 24 9 13 1026.8 1026.8 0.2
08/05:30am 2.6 -2.1 0.8 88 0.7 NE 15 20 8 11 1026.7 1026.7 0.2
08/05:00am 2.3 -2.4 0.7 89 0.6 NE 15 20 8 11 1026.6 1026.6 0.2
08/04:30am 2.1 -2.6 0.6 90 0.6 NE 15 20 8 11 1026.7 1026.7 0.2
08/04:00am 2.1 -2.6 0.6 90 0.6 NE 15 19 8 10 1026.8 1026.8 0.2
08/03:30am 2.1 -2.2 0.8 91 0.5 NE 13 17 7 9 1026.8 1026.8 0.2
08/03:00am 2.1 -2.6 0.9 92 0.4 NE 15 22 8 12 1027.0 1027.0 0.2
08/02:30am 2.1 -2.2 1.1 93 0.4 NNE 13 20 7 11 1027.4 1027.4 0.2
08/02:00am 1.9 -1.7 0.9 93 0.4 NE 9 13 5 7 1027.3 1027.3 0.2
08/01:30am 2.1 -1.8 1.1 93 0.4 NNE 11 15 6 8 1027.3 1027.3 0.2
08/01:00am 2.1 -1.8 1.2 94 0.3 NE 11 13 6 7 1027.3 1027.3 0.2
08/12:30am 2.2 -1.3 1.3 94 0.3 NNE 9 13 5 7 1027.3 1027.3 0.2
08/12:00am 2.1 -1.8 1.1 93 0.4 N 11 15 6 8 1027.3 1027.3 0.2
 
Date/Time
EST
Temp
°C
App
Temp
°C
Dew
Point
Rel
Hum
%
Delta-T
°C
Wind Press
QNH
hPa
Press
MSL
hPa
Rain
since 9 am
mm
Dir
 
Spd
km/h
Gust
km/h
Spd
kts
Gust
kts
07/11:30pm 2.9 -0.9 2.0 94 0.4 NNE 11 15 6 8 1027.2 1027.2 0.2
07/11:00pm 3.0 -0.4 2.1 94 0.4 NNE 9 15 5 8 1027.2 1027.2 0.2
07/10:30pm 3.6 -0.8 2.9 95 0.3 NE 15 20 8 11 1027.0 1027.0 0.2
07/10:00pm 3.4 0.1 2.7 95 0.3 NNE 9 13 5 7 1026.9 1026.9 0.2
07/09:30pm 3.6 0.0 2.9 95 0.3 NNE 11 17 6 9 1026.8 1026.8 0.2
07/09:00pm 3.7 0.1 3.0 95 0.3 NNE 11 15 6 8 1026.6 1026.6 0.2
07/08:30pm 3.9 1.1 3.2 95 0.3 NNE 7 11 4 6 1026.4 1026.4 0.2
07/08:00pm 4.2 0.7 3.3 94 0.4 NNE 11 13 6 7 1026.3 1026.3 0.2
07/07:30pm 4.3 0.8 3.4 94 0.4 NNE 11 11 6 6 1026.1 1026.1 0.2
07/07:00pm 4.1 1.3 2.9 92 0.5 NE 7 11 4 6 1026.0 1026.0 0.2
07/06:30pm 5.3 2.7 4.0 91 0.5 NNE 7 9 4 5 1025.8 1025.8 0.2
07/06:00pm 5.6 2.9 3.9 89 0.7 NNE 7 9 4 5 1025.6 1025.6 0.2
07/05:30pm 6.9 5.3 4.7 86 1.0 NE 2 7 1 4 1025.5 1025.5 0.2
07/05:00pm 8.1 7.0 5.2 82 1.3 CALM 0 0 0 0 1025.2 1025.2 0.2
07/04:30pm 8.4 5.9 4.8 78 1.6 NNE 7 9 4 5 1025.0 1025.0 0.2
07/04:00pm 9.4 6.5 4.8 73 2.0 N 9 13 5 7 1025.0 1025.0 0.2
07/03:30pm 10.1 7.2 4.9 70 2.3 NNW 9 11 5 6 1024.8 1024.8 0.2
07/03:00pm 10.3 7.0 4.5 67 2.6 NNW 11 13 6 7 1024.5 1024.5 0.2
07/02:30pm 11.0 7.6 5.7 70 2.5 N 13 19 7 10 1024.3 1024.3 0.2
07/02:00pm 9.3 6.7 4.1 70 2.3 SSE 7 9 4 5 1024.3 1024.3 0.2
07/01:30pm 9.2 6.5 3.8 69 2.4 SE 7 13 4 7 1024.2 1024.2 0.2
07/01:00pm 10.2 8.2 4.6 68 2.5 SSE 4 9 2 5 1024.3 1024.3 0.2
07/12:30pm 8.5 5.7 1.9 63 2.7 SE 6 11 3 6 1024.6 1024.6 0.2
07/12:00pm 8.8 5.8 2.2 63 2.7 SE 7 9 4 5 1024.7 1024.7 0.2
07/11:30am 7.8 4.4 2.1 67 2.3 SE 9 13 5 7 1024.9 1024.9 0.2
07/11:00am 7.3 3.5 2.0 69 2.2 SE 11 15 6 8 1025.0 1025.0 0.2
07/10:30am 6.7 3.8 2.4 74 1.8 ESE 7 11 4 6 1024.9 1024.9 0.2
07/10:00am 5.4 2.3 3.6 88 0.7 SE 9 13 5 7 1024.7 1024.7 0.2
07/09:30am 4.3 2.5 3.4 94 0.4 SE 2 6 1 3 1024.4 1024.4 0.2
07/09:00am 2.2 0.1 1.8 97 0.2 SE 2 6 1 3 1024.3 1024.3 0.0
07/08:30am 0.6 -2.5 0.2 97 0.1 NE 6 9 3 5 1023.9 1023.9 0.0
07/08:00am -0.7 -3.6 -1.3 96 0.2 ENE 4 7 2 4 1023.7 1023.7 0.0
07/07:30am -0.2 -2.3 -0.6 97 0.1 CALM 0 0 0 0 1023.7 1023.7 0.0
07/07:00am -0.4 -3.7 -1.0 96 0.2 SE 6 6 3 3 1023.3 1023.3 0.0
07/06:30am 0.0 -3.2 -0.6 96 0.2 SE 6 7 3 4 1023.0 1023.0 0.0
07/06:00am 0.8 -2.3 0.2 96 0.2 E 6 7 3 4 1022.5 1022.5 0.0
07/05:30am 0.0 -3.4 -0.6 96 0.2 E 7 9 4 5 1022.1 1022.1 0.0
07/05:00am 0.8 -2.9 0.1 95 0.3 E 9 9 5 5 1021.8 1021.8 0.0
07/04:30am 1.0 -2.1 0.3 95 0.3 ESE 6 7 3 4 1021.7 1021.7 0.0
07/04:00am 1.4 -1.8 0.7 95 0.3 SE 7 9 4 5 1021.3 1021.3 0.0
07/03:30am 1.9 -1.6 1.2 95 0.3 ENE 9 9 5 5 1021.3 1021.3 0.0
07/03:00am 2.2 -0.9 1.5 95 0.3 ESE 7 9 4 5 1021.5 1021.5 0.0
07/02:30am 2.5 -0.9 1.8 95 0.3 SE 9 9 5 5 1021.5 1021.5 0.0
07/02:00am 2.8 -0.6 1.9 94 0.3 SE 9 11 5 6 1021.0 1021.0 0.0
07/01:30am 2.5 -1.3 1.5 93 0.4 SE 11 13 6 7 1020.6 1020.6 0.0
07/01:00am 2.4 -1.5 1.2 92 0.5 SE 11 13 6 7 1020.4 1020.4 0.0
07/12:30am 2.9 -1.0 1.3 89 0.6 SSE 11 13 6 7 1020.3 1020.3 0.0
07/12:00am 2.6 -0.9 1.1 90 0.6 SE 9 11 5 6 1020.2 1020.2 0.0
 
Date/Time
EST
Temp
°C
App
Temp
°C
Dew
Point
Rel
Hum
%
Delta-T
°C
Wind Press
QNH
hPa
Press
MSL
hPa
Rain
since 9 am
mm
Dir
 
Spd
km/h
Gust
km/h
Spd
kts
Gust
kts
06/11:30pm 3.8 0.0 2.0 88 0.7 ESE 11 13 6 7 1020.1 1020.1 0.0
06/11:00pm 4.7 1.1 2.7 87 0.8 SE 11 15 6 8 1020.0 1020.0 0.0
06/10:30pm 4.1 -0.8 2.0 86 0.8 E 17 20 9 11 1019.8 1019.8 0.0
06/10:00pm 3.7 -0.8 1.9 88 0.7 E 15 19 8 10 1019.5 1019.5 0.0
06/09:30pm 3.7 -0.4 2.2 90 0.6 ESE 13 19 7 10 1019.1 1019.1 0.0
06/09:00pm 3.7 -0.7 2.5 92 0.5 ESE 15 17 8 9 1018.7 1018.7 0.0
06/08:30pm 4.5 1.4 3.6 94 0.4 ESE 9 11 5 6 1018.4 1018.4 0.0
06/08:00pm 4.7 1.2 3.7 93 0.4 ESE 11 13 6 7 1018.0 1018.0 0.0
06/07:30pm 5.2 2.6 4.0 92 0.5 ESE 7 9 4 5 1017.6 1017.6 0.0
06/07:00pm 5.1 2.0 3.8 91 0.5 SE 9 13 5 7 1017.1 1017.1 0.0
06/06:30pm 5.8 2.5 4.3 90 0.6 SSE 11 13 6 7 1016.7 1016.7 0.0
06/06:00pm 6.5 2.8 4.7 88 0.8 SSE 13 15 7 8 1016.2 1016.2 0.0
06/05:30pm 6.8 2.8 4.8 87 0.9 SSE 15 19 8 10 1015.8 1015.8 0.0
06/05:00pm 7.8 3.5 5.4 85 1.1 SSE 17 20 9 11 1015.4 1015.5 0.0
06/04:30pm 8.6 4.4 5.5 81 1.4 SSE 17 22 9 12 1015.0 1015.1 0.0
06/04:00pm 9.6 5.5 6.0 78 1.7 SSE 17 22 9 12 1014.7 1014.8 0.0
06/03:30pm 10.1 5.4 6.1 76 1.9 SSE 20 28 11 15 1014.4 1014.5 0.0
06/03:00pm 10.7 6.2 6.1 73 2.1 SSE 19 24 10 13 1014.1 1014.2 0.0
06/02:30pm 11.0 7.0 6.6 74 2.1 SSE 17 24 9 13 1013.9 1014.0 0.0
06/02:00pm 10.8 6.2 6.7 76 1.9 SSE 20 26 11 14 1013.9 1014.0 0.0
06/01:30pm 10.7 6.1 6.3 74 2.1 SSE 20 28 11 15 1013.9 1014.0 0.0
06/01:00pm 10.9 6.6 6.8 76 1.9 SSE 19 26 10 14 1013.9 1014.0 0.0
06/12:30pm 10.8 7.0 7.5 80 1.6 SSE 17 22 9 12 1013.9 1014.0 0.0
06/12:00pm 9.8 6.3 7.2 84 1.2 SSE 15 19 8 10 1014.0 1014.1 0.0
06/11:30am 9.5 7.0 8.4 93 0.5 SE 11 13 6 7 1014.3 1014.4 0.0
06/11:00am 9.1 5.4 8.0 93 0.5 SSE 17 20 9 11 1014.3 1014.4 0.0
06/10:30am 8.3 5.0 8.2 99 0.0 SSE 15 19 8 10 1014.1 1014.2 0.0
06/10:00am 7.6 5.3 7.5 99 0.0 SSE 9 15 5 8 1013.8 1013.9 0.0
06/09:30am 7.6 3.8 7.5 99 0.0 SSE 17 24 9 13 1013.8 1013.9 0.0
06/09:03am 6.7 3.8 6.6 99 0.0 S 11 13 6 7 1013.5 1013.6 0.0
06/09:00am 6.6 4.1 6.5 99 0.0 S 9 13 5 7 1013.4 1013.5 3.6
06/08:30am 4.7 3.5 4.6 99 0.0 CALM 0 0 0 0 1013.3 1013.4 3.6
06/08:14am 4.9 2.6 4.8 99 0.0 ENE 6 9 3 5 1013.3 1013.4 3.6
06/08:00am 5.2 2.4 5.1 99 0.0 SE 9 9 5 5 1013.3 1013.4 3.6
06/07:30am 5.5 2.8 5.4 99 0.0 SSE 9 13 5 7 1013.0 1013.1 3.6
06/07:00am 5.8 3.7 5.7 99 0.0 SSE 6 9 3 5 1012.6 1012.7 3.6
06/06:30am 6.0 3.7 5.9 99 0.0 SE 7 15 4 8 1012.5 1012.6 3.6
06/06:00am 6.2 2.5 6.1 99 0.0 SSE 15 24 8 13 1012.3 1012.4 3.6
06/05:30am 6.1 3.1 6.0 99 0.0 SSE 11 17 6 9 1012.4 1012.5 3.6
06/05:06am 6.0 3.7 5.9 99 0.0 N 7 11 4 6 1012.1 1012.2 3.6
06/05:00am 6.2 4.0 6.1 99 0.0 N 7 11 4 6 1012.1 1012.2 3.6
06/04:42am 5.8 3.1 5.7 99 0.0 ESE 9 11 5 6 1012.3 1012.4 3.6
06/04:30am 5.8 2.7 5.7 99 0.0 SE 11 11 6 6 1012.4 1012.5 3.6
06/04:00am 5.8 2.4 5.7 99 0.0 SSE 13 17 7 9 1012.5 1012.6 3.6
06/03:41am 6.3 2.6 6.2 99 0.0 SE 15 20 8 11 1012.6 1012.7 3.6
06/03:33am 6.2 2.8 6.1 99 0.0 SE 13 17 7 9 1012.6 1012.7 3.6
06/03:30am 6.0 2.6 5.9 99 0.0 SE 13 17 7 9 1012.6 1012.7 3.6
06/03:21am 5.9 3.2 5.8 99 0.0 SE 9 15 5 8 1012.6 1012.7 3.6
06/03:07am 5.6 2.9 5.5 99 0.0 SE 9 11 5 6 1012.6 1012.7 3.6
06/03:00am 5.7 2.6 5.6 99 0.0 SSE 11 11 6 6 1012.6 1012.7 3.6
06/02:30am 6.7 3.1 6.6 99 0.0 S 15 17 8 9 1012.4 1012.5 3.6
06/02:00am 6.5 4.3 6.4 99 0.0 SSE 7 9 4 5 1012.4 1012.5 3.6
06/01:30am 7.0 3.1 6.9 99 0.0 SSE 17 24 9 13 1012.4 1012.5 3.4
06/01:00am 7.2 4.1 7.1 99 0.0 SSE 13 19 7 10 1012.5 1012.6 3.4
06/12:30am 6.9 4.8 6.8 99 0.0 SSE 7 9 4 5 1012.4 1012.5 3.4
06/12:00am 7.1 4.7 7.0 99 0.0 SSE 9 13 5 7 1012.7 1012.8 3.4
 
Date/Time
EST
Temp
°C
App
Temp
°C
Dew
Point
Rel
Hum
%
Delta-T
°C
Wind Press
QNH
hPa
Press
MSL
hPa
Rain
since 9 am
mm
Dir
 
Spd
km/h
Gust
km/h
Spd
kts
Gust
kts
05/11:30pm 7.1 4.3 7.0 99 0.0 SSE 11 15 6 8 1012.7 1012.8 3.4
05/11:00pm 7.4 4.7 7.3 99 0.0 SSE 11 15 6 8 1012.8 1012.9 3.4
05/10:30pm 7.5 4.8 7.4 99 0.0 SE 11 11 6 6 1013.0 1013.1 3.4
05/10:00pm 7.6 5.3 7.5 99 0.0 SE 9 11 5 6 1013.2 1013.3 3.4
05/09:30pm 7.7 5.4 7.6 99 0.0 SE 9 11 5 6 1013.4 1013.5 3.4
05/09:00pm 7.7 5.4 7.4 98 0.1 SE 9 13 5 7 1013.6 1013.7 3.4
05/08:30pm 7.8 5.1 7.4 97 0.2 SSE 11 13 6 7 1013.8 1013.9 3.0
05/08:18pm 7.9 4.9 7.5 97 0.2 SSE 13 15 7 8 1013.8 1013.9 2.6
05/08:00pm 8.1 5.4 7.5 96 0.3 SSE 11 15 6 8 1013.7 1013.8 1.8
05/07:51pm 8.1 5.1 7.5 96 0.3 SSE 13 15 7 8 1013.7 1013.8 1.4
05/07:30pm 8.3 4.5 7.5 95 0.4 SSE 17 20 9 11 1013.6 1013.7 0.6
05/07:00pm 8.5 5.1 7.7 95 0.4 SSE 15 20 8 11 1013.3 1013.4 0.2
05/06:30pm 8.5 5.9 7.6 94 0.4 SSE 11 13 6 7 1013.0 1013.1 0.2
05/06:00pm 8.6 5.6 7.5 93 0.5 SSE 13 17 7 9 1013.0 1013.1 0.2
05/05:30pm 8.8 5.4 7.7 93 0.5 SSE 15 20 8 11 1013.0 1013.1 0.2
05/05:00pm 8.9 6.4 8.1 95 0.4 SSE 11 15 6 8 1012.9 1013.0 0.2
05/04:30pm 9.3 7.6 8.5 95 0.4 SE 7 9 4 5 1012.8 1012.9 0.2
05/04:00pm 9.8 8.4 9.0 95 0.4 SE 6 7 3 4 1012.8 1012.9 0.2
05/03:30pm 9.7 7.0 8.9 95 0.4 SSE 13 17 7 9 1012.7 1012.8 0.2
05/03:00pm 9.9 8.4 9.3 96 0.3 SSE 7 11 4 6 1012.7 1012.8 0.2
05/02:30pm 9.8 7.9 9.2 96 0.3 SE 9 11 5 6 1012.8 1012.9 0.2
05/02:00pm 9.5 7.6 8.9 96 0.3 SSE 9 11 5 6 1013.0 1013.1 0.2
05/01:30pm 9.7 8.2 9.1 96 0.3 SSE 7 9 4 5 1013.1 1013.2 0.2
05/01:00pm 9.4 7.5 8.9 97 0.2 SSE 9 15 5 8 1013.2 1013.3 0.2
05/12:30pm 9.3 7.4 9.2 99 0.0 S 9 11 5 6 1013.6 1013.7 0.2
05/12:00pm 9.1 7.2 9.0 99 0.0 SSE 9 13 5 7 1013.7 1013.8 0.2
05/11:30am 8.6 5.8 8.5 99 0.0 S 13 19 7 10 1014.0 1014.1 0.2
05/11:00am 8.5 6.0 8.4 99 0.0 S 11 13 6 7 1014.2 1014.3 0.0
05/10:30am 8.8 6.8 8.7 99 0.0 SSE 9 11 5 6 1014.3 1014.4 0.0
05/10:00am 8.6 6.2 8.5 99 0.0 SSE 11 17 6 9 1014.0 1014.1 0.0
05/09:30am 8.7 7.2 8.6 99 0.0 SE 6 7 3 4 1014.1 1014.2 0.0
05/09:00am 8.5 7.0 8.4 99 0.0 SE 6 6 3 3 1014.1 1014.2 1.6
05/08:30am 8.2 6.4 8.1 99 0.0 SSE 7 11 4 6 1014.1 1014.2 1.6
05/08:00am 7.9 6.1 7.8 99 0.0 SSE 7 9 4 5 1014.0 1014.1 1.6
05/07:30am 7.8 5.9 7.7 99 0.0 SSE 7 9 4 5 1013.9 1014.0 1.6
05/07:00am 7.8 6.1 7.7 99 0.0 NE 6 9 3 5 1013.9 1014.0 1.6
05/06:30am 7.8 5.9 7.7 99 0.0 NNE 7 9 4 5 1013.8 1013.9 1.6

Other Formats:

Comma delimited format used in spreadsheet applications
http://www.bom.gov.au/fwo/IDT60801/IDT60801.94956.axf

JavaScript Object Notation format (JSON) in row-major order
http://www.bom.gov.au/fwo/IDT60801/IDT60801.94956.json